Time;durP1;ratioP1;P1;durP2;ratioP2;P2;SDS_P1;SDS_P2;PMS_P1;PMS_P2;Temp;Humidity;BMP_temperature;BMP_pressure;BME280_temperature;BME280_humidity;BME280_pressure;Samples;Min_cycle;Max_cycle;Signal;HPM_P1;HPM_P2
2021/04/14 00:01:47;;;;;;;;;;;;;;;-142.75;61.59;80130.88;5090758;28;19919;-74
2021/04/14 00:04:12;;;;;;;;;;;;;;;-142.75;62.37;80126.94;5072748;28;19916;-74
2021/04/14 00:06:37;;;;;;;;;;;;;;;-142.75;62.50;80126.94;5090928;28;19912;-74
2021/04/14 00:09:03;;;;;;;;;;;;;;;-142.75;63.08;80115.13;5094966;28;19919;-74
2021/04/14 00:11:29;;;;;;;;;;;;;;;-142.75;62.58;80095.41;5076534;28;19919;-74
2021/04/14 00:13:54;;;;;;;;;;;;;;;-142.75;62.43;80065.84;5076775;28;20377;-73
2021/04/14 00:16:21;;;;;;;;;;;;;;;-142.75;61.99;80052.06;5094833;28;20298;-73
2021/04/14 00:18:46;;;;;;;;;;;;;;;-142.75;61.84;80046.16;5094846;28;19912;-73
2021/04/14 00:21:12;;;;;;;;;;;;;;;-142.75;61.52;80040.25;5094563;28;19912;-73
2021/04/14 00:23:37;;;;;;;;;;;;;;;-142.75;61.43;80030.41;5076612;28;19934;-74
2021/04/14 00:26:05;;;;;;;;;;;;;;;-142.75;61.42;80036.31;5088495;28;19920;-73
2021/04/14 00:28:30;;;;;;;;;;;;;;;-142.75;62.27;80057.97;5073814;28;19917;-72
2021/04/14 00:30:56;;;;;;;;;;;;;;;-142.75;63.19;80077.69;5086073;28;20385;-74
2021/04/14 00:33:21;;;;;;;;;;;;;;;-142.75;63.96;80085.56;5076406;28;19961;-73
2021/04/14 00:35:47;;;;;;;;;;;;;;;-142.75;63.32;80097.38;5078499;28;19948;-74
2021/04/14 00:38:13;;;;;;;;;;;;;;;-142.75;63.82;80103.28;5074206;28;19913;-74
2021/04/14 00:40:40;;;;;;;;;;;;;;;-142.75;63.67;80091.47;5073879;28;19946;-73
2021/04/14 00:43:08;;;;;;;;;;;;;;;-142.75;63.58;80109.22;5074045;28;19923;-74
2021/04/14 00:45:34;;;;;;;;;;;;;;;-142.75;63.19;80115.13;5055340;28;19946;-74
2021/04/14 00:47:59;;;;;;;;;;;;;;;-142.75;63.84;80123.00;5055850;28;20369;-74
2021/04/14 00:50:25;;;;;;;;;;;;;;;-142.75;63.84;80130.88;5073989;28;19913;-73
2021/04/14 00:52:51;;;;;;;;;;;;;;;-142.75;63.63;80123.00;5073829;28;19921;-73
2021/04/14 00:55:20;;;;;;;;;;;;;;;-142.75;62.71;80119.06;5056161;28;19927;-73
2021/04/14 00:57:45;;;;;;;;;;;;;;;-142.75;62.81;80121.03;5086878;28;19912;-73
2021/04/14 01:00:12;;;;;;;;;;;;;;;-142.75;62.90;80126.94;5094175;28;20282;-73
2021/04/14 01:02:38;;;;;;;;;;;;;;;-142.75;62.64;80121.03;5093636;28;19989;-74
2021/04/14 01:05:07;;;;;;;;;;;;;;;-142.75;62.12;80115.13;5075900;28;19912;-73
2021/04/14 01:07:32;;;;;;;;;;;;;;;-142.75;62.65;80121.03;5093912;28;19912;-74
2021/04/14 01:09:58;;;;;;;;;;;;;;;-142.75;62.79;80121.03;5093846;28;20258;-74
2021/04/14 01:12:23;;;;;;;;;;;;;;;-142.75;63.08;80123.00;5075533;28;19955;-73
2021/04/14 01:14:48;;;;;;;;;;;;;;;-142.75;63.14;80126.94;5094036;28;19911;-72
2021/04/14 01:17:13;;;;;;;;;;;;;;;-142.75;63.29;80123.00;5070854;28;19912;-73
2021/04/14 01:19:38;;;;;;;;;;;;;;;-142.75;63.36;80128.91;5055247;28;19961;-74
2021/04/14 01:22:04;;;;;;;;;;;;;;;-142.75;63.38;80119.06;5055171;28;19912;-72
2021/04/14 01:24:29;;;;;;;;;;;;;;;-142.75;63.72;80109.22;5073426;28;19916;-74
2021/04/14 01:26:54;;;;;;;;;;;;;;;-142.75;63.85;80113.16;5073304;28;19928;-73
2021/04/14 01:29:19;;;;;;;;;;;;;;;-142.75;64.24;80119.06;5072809;28;19962;-73
2021/04/14 01:31:44;;;;;;;;;;;;;;;-142.75;64.04;80119.06;5072857;28;19918;-74
2021/04/14 01:34:11;;;;;;;;;;;;;;;-142.75;63.57;80115.13;5093242;28;19916;-77
2021/04/14 01:36:37;;;;;;;;;;;;;;;-142.75;63.30;80099.34;5093382;28;20341;-74
2021/04/14 01:39:04;;;;;;;;;;;;;;;-142.75;63.27;80093.44;5093247;28;19912;-74
2021/04/14 01:41:29;;;;;;;;;;;;;;;-142.75;63.39;80085.56;5076565;28;19916;-73
2021/04/14 01:43:54;;;;;;;;;;;;;;;-142.75;63.02;80089.50;5072016;28;19916;-72
2021/04/14 01:46:19;;;;;;;;;;;;;;;-142.75;62.99;80103.28;5092522;28;19955;-73
2021/04/14 01:48:44;;;;;;;;;;;;;;;-142.75;63.52;80103.28;5093040;28;19915;-73
2021/04/14 01:51:10;;;;;;;;;;;;;;;-142.75;64.13;80119.06;5092626;28;19916;-72
2021/04/14 01:53:35;;;;;;;;;;;;;;;-142.75;65.20;80123.00;5093081;28;19954;-75
2021/04/14 01:56:00;;;;;;;;;;;;;;;-142.75;65.62;80109.22;5074746;28;19912;-73
2021/04/14 01:58:28;;;;;;;;;;;;;;;-142.75;65.17;80107.22;5093063;28;20356;-75
2021/04/14 02:00:56;;;;;;;;;;;;;;;-142.75;64.65;80111.19;5073845;28;19912;-73
2021/04/14 02:03:22;;;;;;;;;;;;;;;-142.75;64.69;80117.09;5072519;28;20381;-74
2021/04/14 02:05:47;;;;;;;;;;;;;;;-142.75;64.75;80126.94;5054765;28;19913;-72
2021/04/14 02:08:13;;;;;;;;;;;;;;;-142.75;64.78;80134.81;5054551;28;20362;-74
2021/04/14 02:10:39;;;;;;;;;;;;;;;-142.75;63.64;80128.91;5072170;28;19912;-74
2021/04/14 02:13:06;;;;;;;;;;;;;;;-142.75;64.74;80081.63;5072618;28;19932;-74
2021/04/14 02:15:33;;;;;;;;;;;;;;;-142.75;64.90;80059.94;5054574;28;19916;-73
2021/04/14 02:17:58;;;;;;;;;;;;;;;-142.75;64.55;80061.91;5072499;28;19912;-74
2021/04/14 02:20:24;;;;;;;;;;;;;;;-142.75;64.20;80065.84;5072182;28;19916;-73
2021/04/14 02:22:49;;;;;;;;;;;;;;;-142.75;63.80;80079.66;5073520;28;20311;-74
2021/04/14 02:25:15;;;;;;;;;;;;;;;-142.75;64.01;80085.56;5072104;28;19916;-71
2021/04/14 02:27:40;;;;;;;;;;;;;;;-142.75;63.96;80091.47;5090361;28;19916;-73
2021/04/14 02:30:07;;;;;;;;;;;;;;;-142.75;64.21;80087.53;5091537;28;19918;-73
2021/04/14 02:32:33;;;;;;;;;;;;;;;-142.75;64.18;80089.50;5091872;28;19912;-74
2021/04/14 02:34:58;;;;;;;;;;;;;;;-142.75;64.23;80089.50;5092311;28;20025;-74
2021/04/14 02:37:23;;;;;;;;;;;;;;;-142.75;64.51;80087.53;5092212;28;19912;-72
2021/04/14 02:39:49;;;;;;;;;;;;;;;-142.75;64.63;80083.59;5073944;28;19957;-74
2021/04/14 02:42:14;;;;;;;;;;;;;;;-142.75;64.72;80083.59;5073684;28;19957;-73
2021/04/14 02:44:39;;;;;;;;;;;;;;;-142.75;64.64;80083.59;5092066;28;19992;-73
2021/04/14 02:47:04;;;;;;;;;;;;;;;-142.75;64.74;80079.66;5091886;28;19962;-74
2021/04/14 02:49:29;;;;;;;;;;;;;;;-142.75;65.13;80077.69;5092104;28;19927;-74
2021/04/14 02:51:55;;;;;;;;;;;;;;;-142.75;65.15;80071.78;5091071;28;19919;-73
2021/04/14 02:54:21;;;;;;;;;;;;;;;-142.75;65.03;80077.69;5092240;28;19919;-73
2021/04/14 02:56:46;;;;;;;;;;;;;;;-142.75;64.79;80075.72;5073957;28;19919;-73
2021/04/14 02:59:11;;;;;;;;;;;;;;;-142.75;64.93;80075.72;5091979;28;19923;-73
2021/04/14 03:01:36;;;;;;;;;;;;;;;-142.75;64.83;80075.72;5091491;28;19937;-74
2021/04/14 03:04:02;;;;;;;;;;;;;;;-142.75;64.59;80071.78;5064566;28;19916;-74
2021/04/14 03:06:27;;;;;;;;;;;;;;;-142.75;64.23;80061.91;5052077;28;20579;-73
2021/04/14 03:08:52;;;;;;;;;;;;;;;-142.75;64.38;80057.97;5071404;28;19912;-74
2021/04/14 03:11:18;;;;;;;;;;;;;;;-142.75;64.93;80052.06;5053238;28;20340;-73
2021/04/14 03:13:43;;;;;;;;;;;;;;;-142.75;65.17;80038.28;5053426;28;20392;-74
2021/04/14 03:16:08;;;;;;;;;;;;;;;-142.75;64.73;80032.38;5073584;28;20339;-73
2021/04/14 03:18:33;;;;;;;;;;;;;;;-142.75;64.64;80036.31;5065106;28;19912;-74
2021/04/14 03:20:59;;;;;;;;;;;;;;;-142.75;64.80;80032.38;5072106;28;19923;-74
2021/04/14 03:23:25;;;;;;;;;;;;;;;-142.75;64.88;80036.31;5056050;28;19924;-74
2021/04/14 03:25:50;;;;;;;;;;;;;;;-142.75;64.60;80036.31;5082411;28;20328;-73
2021/04/14 03:28:16;;;;;;;;;;;;;;;-142.75;64.79;80036.31;5082168;28;19912;-74
2021/04/14 03:30:41;;;;;;;;;;;;;;;-142.75;64.44;80034.34;5072946;28;19912;-73
2021/04/14 03:33:07;;;;;;;;;;;;;;;-142.75;64.00;80038.28;5073267;28;20004;-74
2021/04/14 03:35:32;;;;;;;;;;;;;;;-142.75;63.70;80040.25;5091211;28;20060;-75
2021/04/14 03:37:57;;;;;;;;;;;;;;;-142.75;63.71;80038.28;5090377;28;19934;-74
2021/04/14 03:40:23;;;;;;;;;;;;;;;-142.75;64.01;80034.34;5053066;28;19928;-74
2021/04/14 03:42:50;;;;;;;;;;;;;;;-142.75;64.10;80032.38;5064636;28;19916;-74
2021/04/14 03:45:19;;;;;;;;;;;;;;;-142.75;64.16;80034.34;5073055;28;19998;-73
2021/04/14 03:47:44;;;;;;;;;;;;;;;-142.75;64.38;80038.28;5091077;28;19912;-73
2021/04/14 03:50:11;;;;;;;;;;;;;;;-142.75;64.11;80044.19;5070635;28;19977;-73
2021/04/14 03:52:36;;;;;;;;;;;;;;;-142.75;64.35;80040.25;5072071;28;19913;-73
2021/04/14 03:55:02;;;;;;;;;;;;;;;-142.75;64.75;80044.19;5091113;28;19912;-73
2021/04/14 03:57:27;;;;;;;;;;;;;;;-142.75;65.00;80044.19;5091115;28;19912;-73
2021/04/14 03:59:53;;;;;;;;;;;;;;;-142.75;64.81;80052.06;5090875;28;19912;-73
2021/04/14 04:02:18;;;;;;;;;;;;;;;-142.75;64.69;80052.06;5072577;28;19943;-73
2021/04/14 04:04:43;;;;;;;;;;;;;;;-142.75;64.91;80052.06;5091074;28;19916;-74
2021/04/14 04:07:08;;;;;;;;;;;;;;;-142.75;65.00;80046.16;5091088;28;19964;-74
2021/04/14 04:09:33;;;;;;;;;;;;;;;-142.75;64.66;80044.19;5091018;28;19982;-73
2021/04/14 04:11:59;;;;;;;;;;;;;;;-142.75;64.60;80046.16;5072528;28;19916;-74
2021/04/14 04:14:27;;;;;;;;;;;;;;;-142.75;64.24;80042.22;5087242;28;19919;-73
2021/04/14 04:16:53;;;;;;;;;;;;;;;-142.75;63.60;80038.28;5069271;28;19991;-74
2021/04/14 04:19:18;;;;;;;;;;;;;;;-142.75;62.92;80032.38;5070773;28;20333;-74
2021/04/14 04:21:43;;;;;;;;;;;;;;;-142.75;62.47;80034.34;5070414;28;19920;-74
2021/04/14 04:24:08;;;;;;;;;;;;;;;-142.75;62.45;80024.50;5070707;28;20430;-74
2021/04/14 04:26:34;;;;;;;;;;;;;;;-142.75;62.91;80020.53;5070564;28;20328;-74
2021/04/14 04:28:59;;;;;;;;;;;;;;;-142.75;66.38;79981.16;5082718;28;19923;-74
2021/04/14 04:31:24;;;;;;;;;;;;;;;-142.75;65.89;79996.91;5089191;28;19926;-74
2021/04/14 04:33:49;;;;;;;;;;;;;;;-142.75;65.31;80008.72;5053099;28;19951;-73
2021/04/14 04:36:14;;;;;;;;;;;;;;;-142.75;64.95;80020.53;5062098;28;20289;-72
2021/04/14 04:38:40;;;;;;;;;;;;;;;-142.75;64.91;80036.31;5083859;28;19962;-73
2021/04/14 04:41:05;;;;;;;;;;;;;;;-142.75;65.80;80044.19;5080618;28;19912;-73
2021/04/14 04:43:30;;;;;;;;;;;;;;;-142.75;66.53;80034.34;5076180;28;19919;-74
2021/04/14 04:45:56;;;;;;;;;;;;;;;-142.75;66.63;80038.28;5080222;28;19912;-73
2021/04/14 04:48:21;;;;;;;;;;;;;;;-142.75;66.73;80040.25;5052445;28;19916;-73
2021/04/14 04:50:46;;;;;;;;;;;;;;;-142.75;66.35;80032.38;5069878;28;19920;-73
2021/04/14 04:53:19;;;;;;;;;;;;;;;-142.75;65.57;80038.28;5071283;28;20113;-74
2021/04/14 04:55:46;;;;;;;;;;;;;;;-142.75;65.01;80046.16;5073921;28;20034;-72
2021/04/14 04:58:11;;;;;;;;;;;;;;;-142.75;64.97;80050.09;5073730;28;19912;-72
2021/04/14 05:00:36;;;;;;;;;;;;;;;-142.75;64.73;80054.03;5055676;28;19931;-70
2021/04/14 05:03:03;;;;;;;;;;;;;;;-142.75;64.75;80056.00;5055783;28;19966;-72
2021/04/14 05:05:28;;;;;;;;;;;;;;;-142.75;64.55;80048.13;5055889;28;19912;-73
2021/04/14 05:07:54;;;;;;;;;;;;;;;-142.75;64.45;80044.19;5055696;28;20411;-72
2021/04/14 05:10:19;;;;;;;;;;;;;;;-142.75;64.22;80036.31;5055792;28;20475;-70
2021/04/14 05:12:47;;;;;;;;;;;;;;;-142.75;63.86;80026.47;5073229;28;20348;-72
2021/04/14 05:15:13;;;;;;;;;;;;;;;-142.75;63.88;80018.56;5073823;28;20049;-70
2021/04/14 05:17:38;;;;;;;;;;;;;;;-142.75;64.35;80016.59;5073430;28;19952;-72
2021/04/14 05:20:04;;;;;;;;;;;;;;;-142.75;64.65;80002.81;5055663;28;19920;-73
2021/04/14 05:22:30;;;;;;;;;;;;;;;-142.75;64.84;80000.84;5072951;28;19913;-73
2021/04/14 05:24:56;;;;;;;;;;;;;;;-142.75;64.96;80002.81;5073404;28;19912;-74
2021/04/14 05:27:21;;;;;;;;;;;;;;;-142.75;65.22;80012.66;5073120;28;19912;-74
2021/04/14 05:29:46;;;;;;;;;;;;;;;-142.75;65.46;80014.63;5055453;28;19916;-74
2021/04/14 05:32:12;;;;;;;;;;;;;;;-142.75;65.50;80018.56;5055021;28;19912;-73
2021/04/14 05:34:37;;;;;;;;;;;;;;;-142.75;65.56;80016.59;5055333;28;19912;-73
2021/04/14 05:37:02;;;;;;;;;;;;;;;-142.75;65.46;80008.72;5055278;28;19920;-74
2021/04/14 05:39:27;;;;;;;;;;;;;;;-142.75;65.53;80002.81;5054774;28;19912;-74
2021/04/14 05:41:52;;;;;;;;;;;;;;;-142.75;65.67;80004.78;5072724;28;19915;-73
2021/04/14 05:44:18;;;;;;;;;;;;;;;-142.75;65.85;80006.75;5054827;28;19916;-73
2021/04/14 05:46:43;;;;;;;;;;;;;;;-142.75;65.59;80010.69;5072927;28;19920;-73
2021/04/14 05:49:08;;;;;;;;;;;;;;;-142.75;65.51;80004.78;5072887;28;19912;-73
2021/04/14 05:51:33;;;;;;;;;;;;;;;-142.75;65.29;79996.91;5072782;28;20004;-73
2021/04/14 05:54:00;;;;;;;;;;;;;;;-142.75;64.48;79998.88;5072949;28;20374;-73
2021/04/14 05:56:26;;;;;;;;;;;;;;;-142.75;63.73;79977.19;5070885;28;19919;-73
2021/04/14 05:58:51;;;;;;;;;;;;;;;-142.75;63.06;79937.81;5093047;28;19912;-73
2021/04/14 06:01:18;;;;;;;;;;;;;;;-142.75;62.65;79933.84;5065665;28;19912;-73
2021/04/14 06:03:43;;;;;;;;;;;;;;;-142.75;61.66;79937.81;5072657;28;19916;-73
2021/04/14 06:06:08;;;;;;;;;;;;;;;-142.75;61.83;79933.84;5071432;28;19958;-73
2021/04/14 06:08:33;;;;;;;;;;;;;;;-142.75;61.32;79935.84;5054815;28;19912;-73
2021/04/14 06:10:59;;;;;;;;;;;;;;;-142.75;61.76;79929.91;5087890;28;19916;-73
2021/04/14 06:13:25;;;;;;;;;;;;;;;-142.75;61.98;79931.88;5092777;28;19912;-73
2021/04/14 06:15:50;;;;;;;;;;;;;;;-142.75;61.71;79925.97;5092669;28;19927;-73
2021/04/14 06:18:15;;;;;;;;;;;;;;;-142.75;61.78;79918.09;5092474;28;20036;-73
2021/04/14 06:20:40;;;;;;;;;;;;;;;-142.75;61.21;79902.34;5074080;28;19912;-73
2021/04/14 06:23:08;;;;;;;;;;;;;;;-142.75;61.18;79898.41;5092560;28;19922;-73
2021/04/14 06:28:22;;;;;;;;;;;;;;;-142.75;61.28;79878.69;5046025;28;20010;-74
2021/04/14 06:30:47;;;;;;;;;;;;;;;-142.75;60.98;79831.41;5071791;28;19940;-73
2021/04/14 06:33:14;;;;;;;;;;;;;;;-142.75;59.80;79807.78;5072126;28;19920;-73
2021/04/14 06:35:40;;;;;;;;;;;;;;;-142.75;60.04;79792.00;5089016;28;19943;-73
2021/04/14 06:38:06;;;;;;;;;;;;;;;-142.75;60.31;79799.91;5085233;28;19970;-72
2021/04/14 06:43:11;;;;;;;;;;;;;;;-142.75;59.94;79793.97;5091423;28;19916;-73
2021/04/14 06:45:39;;;;;;;;;;;;;;;-142.75;59.97;79780.19;5092134;28;19918;-71
2021/04/14 06:48:18;;;;;;;;;;;;;;;-142.75;60.09;79772.31;5070754;28;20436;-73
2021/04/14 06:50:49;;;;;;;;;;;;;;;-142.75;60.60;79764.44;5052612;28;19912;-73
2021/04/14 06:53:23;;;;;;;;;;;;;;;-142.75;60.48;79762.47;5070688;28;19940;-73
2021/04/14 06:55:54;;;;;;;;;;;;;;;-142.75;58.61;79744.72;5075390;28;19970;-73
2021/04/14 06:58:22;;;;;;;;;;;;;;;-142.75;59.76;79738.81;5072812;28;19916;-74
2021/04/14 07:00:55;;;;;;;;;;;;;;;-142.75;59.13;79721.09;5072476;28;19911;-74
2021/04/14 07:03:24;;;;;;;;;;;;;;;-142.75;58.75;79721.09;5072598;28;19920;-73
2021/04/14 07:05:56;;;;;;;;;;;;;;;-142.75;59.39;79732.91;5072423;28;19920;-73
2021/04/14 07:08:24;;;;;;;;;;;;;;;-142.75;58.02;79727.00;5078427;28;19916;-72
2021/04/14 07:10:51;;;;;;;;;;;;;;;-142.75;58.04;79717.16;5069322;28;19916;-73
2021/04/14 07:13:16;;;;;;;;;;;;;;;-142.75;58.94;79709.28;5069272;28;19911;-73
2021/04/14 07:15:41;;;;;;;;;;;;;;;-142.75;59.00;79691.53;5078397;28;19917;-73
2021/04/14 07:18:22;;;;;;;;;;;;;;;-142.75;58.10;79671.84;5052239;28;19987;-73
2021/04/14 07:21:02;;;;;;;;;;;;;;;-142.75;57.90;79662.00;5054088;28;19964;-73
2021/04/14 07:23:28;;;;;;;;;;;;;;;-142.75;57.54;79650.16;5063125;28;19943;-73
2021/04/14 07:25:56;;;;;;;;;;;;;;;-142.75;57.51;79648.19;5089061;28;20317;-73
2021/04/14 07:28:51;;;;;;;;;;;;;;;-142.75;57.73;79634.41;5072272;28;19916;-73
2021/04/14 07:31:22;;;;;;;;;;;;;;;-142.75;58.03;79634.41;5033702;28;19958;-73
2021/04/14 07:34:06;;;;;;;;;;;;;;;-142.75;58.46;79610.78;5052383;28;20349;-73
2021/04/14 07:36:40;;;;;;;;;;;;;;;-142.75;57.07;79610.78;5077915;28;19912;-72
2021/04/14 07:39:12;;;;;;;;;;;;;;;-142.75;57.71;79610.78;5090276;28;19945;-75
2021/04/14 07:42:02;;;;;;;;;;;;;;;-142.75;57.50;79604.88;5060772;28;20408;-73
2021/04/14 07:44:47;;;;;;;;;;;;;;;-142.75;57.29;79596.97;5066465;28;19920;-73
2021/04/14 07:47:14;;;;;;;;;;;;;;;-142.75;57.05;79571.38;5088479;28;19912;-73
2021/04/14 07:49:40;;;;;;;;;;;;;;;-142.75;56.13;79563.50;5071875;28;19996;-73
2021/04/14 07:52:05;;;;;;;;;;;;;;;-142.75;57.13;79561.53;5075437;28;19916;-73
2021/04/14 07:54:46;;;;;;;;;;;;;;;-142.75;56.73;79561.53;5070064;28;19978;-73
2021/04/14 07:57:11;;;;;;;;;;;;;;;-142.75;55.91;79541.81;5069771;28;19912;-74
2021/04/14 07:59:39;;;;;;;;;;;;;;;-142.75;55.60;79531.97;5070097;28;19969;-73
2021/04/14 08:02:12;;;;;;;;;;;;;;;-142.75;54.98;79518.19;5069538;28;19920;-72
2021/04/14 08:04:39;;;;;;;;;;;;;;;-142.75;55.17;79510.31;5069585;28;20347;-73
2021/04/14 08:07:08;;;;;;;;;;;;;;;-142.75;55.21;79488.63;5055785;28;19951;-73
2021/04/14 08:09:34;;;;;;;;;;;;;;;-142.75;54.13;79476.81;5090265;28;19918;-72
2021/04/14 08:12:04;;;;;;;;;;;;;;;-142.75;54.66;79457.13;5089582;28;19920;-73
2021/04/14 08:14:36;;;;;;;;;;;;;;;-142.75;51.68;79370.44;5072006;28;20024;-72
2021/04/14 08:17:13;;;;;;;;;;;;;;;-142.75;52.20;79303.47;5065091;28;19922;-73
2021/04/14 08:19:38;;;;;;;;;;;;;;;-142.75;51.52;79297.56;5050700;28;19919;-73
2021/04/14 08:22:03;;;;;;;;;;;;;;;-142.75;51.46;79268.00;5051558;28;19920;-73
2021/04/14 08:24:28;;;;;;;;;;;;;;;-142.75;51.91;79275.88;5051436;28;19920;-73
2021/04/14 08:26:54;;;;;;;;;;;;;;;-142.75;51.27;79266.03;5051779;28;20002;-73
2021/04/14 08:29:20;;;;;;;;;;;;;;;-142.75;51.59;79230.59;5054416;28;20010;-73
2021/04/14 08:31:45;;;;;;;;;;;;;;;-142.75;51.52;79220.75;5073431;28;20417;-73
2021/04/14 08:34:19;;;;;;;;;;;;;;;-142.75;50.84;79193.16;5055468;28;19916;-73
2021/04/14 08:36:53;;;;;;;;;;;;;;;-142.75;50.28;79179.38;5073385;28;20011;-73
2021/04/14 08:39:22;;;;;;;;;;;;;;;-142.75;49.93;79082.84;5079968;28;19923;-73
2021/04/14 08:41:48;;;;;;;;;;;;;;;-142.75;48.18;78907.56;5074988;28;19918;-72
2021/04/14 08:44:17;;;;;;;;;;;;;;;-142.75;47.52;78811.03;5075254;28;19923;-72
2021/04/14 08:46:43;;;;;;;;;;;;;;;-142.75;45.15;78665.28;5093169;28;20037;-73
2021/04/14 08:49:14;;;;;;;;;;;;;;;-142.75;42.58;78517.59;5093143;28;19925;-73
2021/04/14 08:51:41;;;;;;;;;;;;;;;-142.75;38.97;78401.38;5093025;28;19965;-71
2021/04/14 08:54:09;;;;;;;;;;;;;;;-142.75;39.54;78287.16;5093324;28;20468;-73
2021/04/14 08:56:35;;;;;;;;;;;;;;;-142.75;38.39;78279.28;5093241;28;20373;-73
2021/04/14 08:59:00;;;;;;;;;;;;;;;-142.75;38.94;78395.47;5075203;28;19929;-73
2021/04/14 09:01:29;;;;;;;;;;;;;;;-142.75;38.59;78488.03;5074778;28;19923;-72
2021/04/14 09:03:56;;;;;;;;;;;;;;;-142.75;39.81;78560.91;5074624;28;19994;-72
2021/04/14 09:06:21;;;;;;;;;;;;;;;-142.75;40.18;78618.03;5082245;28;19912;-72
2021/04/14 09:08:50;;;;;;;;;;;;;;;-142.75;40.57;78529.41;5072736;28;19913;-72
2021/04/14 09:11:21;;;;;;;;;;;;;;;-142.75;39.24;78523.50;5054483;28;19959;-73
2021/04/14 09:13:46;;;;;;;;;;;;;;;-142.75;39.87;78428.97;5072160;28;20384;-72
2021/04/14 09:16:12;;;;;;;;;;;;;;;-142.75;36.29;78269.44;5072475;28;19939;-72
2021/04/14 09:18:41;;;;;;;;;;;;;;;-142.75;36.82;78125.69;5072438;28;19916;-73
2021/04/14 09:21:20;;;;;;;;;;;;;;;-142.75;34.75;78019.34;5054310;28;19912;-72
2021/04/14 09:24:07;;;;;;;;;;;;;;;-142.75;32.37;78052.81;5071044;28;19970;-73
2021/04/14 09:26:34;;;;;;;;;;;;;;;-142.75;34.43;77987.84;5072293;28;19964;-73
2021/04/14 09:29:00;;;;;;;;;;;;;;;-142.75;32.15;78125.69;5054351;28;20398;-72
2021/04/14 09:31:42;;;;;;;;;;;;;;;-142.75;33.36;78013.44;5071894;28;19916;-73
2021/04/14 09:34:29;;;;;;;;;;;;;;;-142.75;31.16;77853.94;5072277;28;19922;-73
2021/04/14 09:37:04;;;;;;;;;;;;;;;-142.75;32.48;77970.13;5072142;28;19952;-73
2021/04/14 09:39:31;;;;;;;;;;;;;;;-142.75;32.69;77918.94;5072005;28;19913;-73
2021/04/14 09:41:57;;;;;;;;;;;;;;;-142.75;31.69;77871.66;5071855;28;19945;-73
2021/04/14 09:44:31;;;;;;;;;;;;;;;-142.75;32.66;78082.38;5061009;28;20315;-73
2021/04/14 09:47:08;;;;;;;;;;;;;;;-142.75;30.50;78070.56;5092110;28;19919;-73
2021/04/14 09:49:38;;;;;;;;;;;;;;;-142.75;32.05;78241.88;5092035;28;19965;-72
2021/04/14 09:52:06;;;;;;;;;;;;;;;-142.75;34.12;78137.50;5091784;28;20476;-72
2021/04/14 09:54:36;;;;;;;;;;;;;;;-142.75;33.34;77960.28;5073900;28;19923;-73
2021/04/14 09:57:04;;;;;;;;;;;;;;;-142.75;30.14;78070.56;5092098;28;19957;-73
2021/04/14 09:59:34;;;;;;;;;;;;;;;-142.75;32.46;78251.72;5092085;28;19920;-72
2021/04/14 10:02:01;;;;;;;;;;;;;;;-142.75;31.33;78094.19;5091711;28;20477;-73
2021/04/14 10:04:27;;;;;;;;;;;;;;;-142.75;30.86;78249.75;5091893;28;19974;-71
2021/04/14 10:06:54;;;;;;;;;;;;;;;-142.75;33.94;78535.31;5073174;28;19951;-72
2021/04/14 10:09:29;;;;;;;;;;;;;;;-142.75;36.81;78779.53;5071687;28;19927;-72
2021/04/14 10:11:55;;;;;;;;;;;;;;;-142.75;35.49;78712.56;5071245;28;19951;-72
2021/04/14 10:14:21;;;;;;;;;;;;;;;-142.75;33.82;78515.63;5071833;28;19968;-73
2021/04/14 10:16:48;;;;;;;;;;;;;;;-142.75;35.42;78395.47;5071492;28;19916;-73
2021/04/14 10:19:15;;;;;;;;;;;;;;;-142.75;33.34;78169.00;5071210;28;19955;-73
2021/04/14 10:21:41;;;;;;;;;;;;;;;-142.75;32.62;78281.25;5070358;28;20368;-72
2021/04/14 10:24:08;;;;;;;;;;;;;;;-142.75;32.77;78430.94;5071392;28;20053;-73
2021/04/14 10:26:35;;;;;;;;;;;;;;;-142.75;34.91;78555.00;5071172;28;19943;-72
2021/04/14 10:29:01;;;;;;;;;;;;;;;-142.75;36.22;78562.88;5071236;28;19920;-72
2021/04/14 10:31:27;;;;;;;;;;;;;;;-142.75;35.79;78576.66;5071021;28;19938;-73
2021/04/14 10:33:53;;;;;;;;;;;;;;;-142.75;38.62;78692.88;5071153;28;19962;-73
2021/04/14 10:36:23;;;;;;;;;;;;;;;-142.75;41.52;78820.88;5053276;28;20362;-72
2021/04/14 10:38:49;;;;;;;;;;;;;;;-142.75;42.46;78874.06;5051669;28;19991;-72
2021/04/14 10:41:29;;;;;;;;;;;;;;;-142.75;43.21;78941.03;5070554;28;20024;-73
2021/04/14 10:43:54;;;;;;;;;;;;;;;-142.75;43.69;78943.00;5069654;28;19916;-72
2021/04/14 10:46:27;;;;;;;;;;;;;;;-142.75;44.01;78974.53;5070825;28;19920;-71
2021/04/14 10:48:58;;;;;;;;;;;;;;;-142.75;44.42;79006.03;5056480;28;19916;-72
2021/04/14 10:51:26;;;;;;;;;;;;;;;-142.75;45.05;79029.66;5071994;28;20400;-72
2021/04/14 10:53:53;;;;;;;;;;;;;;;-142.75;45.65;79047.41;5090962;28;19912;-73
2021/04/14 10:56:21;;;;;;;;;;;;;;;-142.75;46.59;79080.88;5071658;28;19918;-72
2021/04/14 10:58:47;;;;;;;;;;;;;;;-142.75;46.70;79126.19;5069390;28;19912;-71
2021/04/14 11:01:14;;;;;;;;;;;;;;;-142.75;47.22;79155.72;5070057;28;19931;-72
2021/04/14 11:03:41;;;;;;;;;;;;;;;-142.75;47.21;79189.22;5052563;28;19950;-71
2021/04/14 11:06:09;;;;;;;;;;;;;;;-142.75;48.07;79191.19;5052504;28;20025;-73
2021/04/14 11:08:35;;;;;;;;;;;;;;;-142.75;47.03;79185.28;5070626;28;19912;-72
2021/04/14 11:11:01;;;;;;;;;;;;;;;-142.75;47.27;79185.28;5070384;28;20286;-72
2021/04/14 11:13:28;;;;;;;;;;;;;;;-142.75;47.18;79161.66;5053840;28;19916;-72
2021/04/14 11:15:54;;;;;;;;;;;;;;;-142.75;47.21;79145.88;5078044;28;19912;-72
2021/04/14 11:18:29;;;;;;;;;;;;;;;-142.75;46.75;79118.31;5072366;28;21464;-72
2021/04/14 11:20:58;;;;;;;;;;;;;;;-142.75;45.60;79102.56;5058091;28;20003;-72
2021/04/14 11:23:31;;;;;;;;;;;;;;;-142.75;45.41;79098.63;5070092;28;19928;-73
2021/04/14 11:26:10;;;;;;;;;;;;;;;-142.75;46.45;79063.16;5052343;28;19919;-72
2021/04/14 11:28:44;;;;;;;;;;;;;;;-142.75;45.67;79017.84;5070145;28;19912;-72
2021/04/14 11:31:10;;;;;;;;;;;;;;;-142.75;44.85;78992.25;5070070;28;19946;-70
2021/04/14 11:33:38;;;;;;;;;;;;;;;-142.75;42.50;78976.50;5070188;28;19917;-73
2021/04/14 11:36:04;;;;;;;;;;;;;;;-142.75;43.46;78960.72;5050917;28;20289;-71
2021/04/14 11:38:34;;;;;;;;;;;;;;;-142.75;43.39;78939.06;5089265;22;19928;-74
2021/04/14 11:41:00;;;;;;;;;;;;;;;-142.75;43.14;78901.66;5110065;28;19919;-76
2021/04/14 11:43:35;;;;;;;;;;;;;;;-142.75;42.79;78876.03;5093000;28;19922;-78
2021/04/14 11:46:27;;;;;;;;;;;;;;;-142.75;41.97;78870.13;5094603;28;20377;-76
2021/04/14 11:48:56;;;;;;;;;;;;;;;-142.75;41.52;78814.97;5114157;28;19911;-77
2021/04/14 11:51:30;;;;;;;;;;;;;;;-142.75;41.70;78807.09;5098897;28;19911;-76
2021/04/14 11:53:58;;;;;;;;;;;;;;;-142.75;41.14;78803.16;5093384;28;19920;-78
2021/04/14 11:56:26;;;;;;;;;;;;;;;-142.75;40.94;78767.72;5094068;28;20007;-76
2021/04/14 11:58:52;;;;;;;;;;;;;;;-142.75;40.81;78763.78;5116784;28;20280;-77
2021/04/14 12:01:35;;;;;;;;;;;;;;;-142.75;41.76;78738.16;5111506;28;19916;-76
2021/04/14 12:04:14;;;;;;;;;;;;;;;-142.75;40.44;78742.09;5122917;27;20330;-76
2021/04/14 12:06:39;;;;;;;;;;;;;;;-142.75;41.40;78771.66;5122668;27;19918;-77
2021/04/14 12:09:04;;;;;;;;;;;;;;;-142.75;41.71;78775.59;5118797;27;20293;-76
2021/04/14 12:11:30;;;;;;;;;;;;;;;-142.75;40.89;78785.44;5116265;28;20376;-78
2021/04/14 12:13:55;;;;;;;;;;;;;;;-142.75;39.39;78816.94;5097728;28;20310;-78
2021/04/14 12:16:20;;;;;;;;;;;;;;;-142.75;40.75;78826.81;5098004;28;19911;-76
2021/04/14 12:18:45;;;;;;;;;;;;;;;-142.75;39.22;78811.03;5095259;28;19931;-76
2021/04/14 12:21:11;;;;;;;;;;;;;;;-142.75;41.12;78789.38;5097364;28;19919;-75
2021/04/14 12:23:36;;;;;;;;;;;;;;;-142.75;39.42;78787.41;5116050;28;19919;-75
2021/04/14 12:26:01;;;;;;;;;;;;;;;-142.75;38.78;78830.75;5097153;28;20381;-75
2021/04/14 12:28:27;;;;;;;;;;;;;;;-142.75;39.73;78854.38;5116235;28;20014;-77
2021/04/14 12:30:52;;;;;;;;;;;;;;;-142.75;37.63;78828.78;5115793;28;19912;-77
2021/04/14 12:33:18;;;;;;;;;;;;;;;-142.75;39.17;78885.88;5097522;28;19912;-77
2021/04/14 12:35:43;;;;;;;;;;;;;;;-142.75;40.38;78807.09;5097912;28;19926;-76